Time;durP1;ratioP1;P1;durP2;ratioP2;P2;SDS_P1;SDS_P2;PMS_P1;PMS_P2;Temp;Humidity;BMP_temperature;BMP_pressure;BME280_temperature;BME280_humidity;BME280_pressure;Samples;Min_cycle;Max_cycle;Signal;HPM_P1;HPM_P2
2022/08/29 00:00:18;;;;;;;3.63;1.08;;;16.90;99.90;;;;;;4976793;28;20376;-74
2022/08/29 00:02:49;;;;;;;3.67;1.27;;;16.90;99.90;;;;;;4976707;28;20105;-73
2022/08/29 00:05:18;;;;;;;3.50;1.27;;;16.90;99.90;;;;;;4976512;28;20054;-73
2022/08/29 00:07:44;;;;;;;2.42;1.05;;;16.90;99.90;;;;;;4975681;28;20082;-73
2022/08/29 00:10:11;;;;;;;3.88;1.00;;;16.90;99.90;;;;;;4976427;28;20074;-73
2022/08/29 00:12:37;;;;;;;3.17;1.17;;;16.90;99.90;;;;;;4976458;28;20047;-73
2022/08/29 00:15:05;;;;;;;3.67;1.50;;;16.90;99.90;;;;;;4975351;28;20137;-72
2022/08/29 00:17:31;;;;;;;2.78;1.45;;;16.90;99.90;;;;;;4975216;28;20106;-73
2022/08/29 00:19:56;;;;;;;5.22;1.20;;;16.90;99.90;;;;;;4976058;28;20058;-73
2022/08/29 00:22:22;;;;;;;3.45;1.25;;;17.00;99.90;;;;;;4976019;28;20074;-73
2022/08/29 00:24:48;;;;;;;5.55;1.30;;;16.90;99.90;;;;;;4976345;28;20050;-73
2022/08/29 00:27:14;;;;;;;3.42;1.30;;;16.90;99.90;;;;;;4975163;28;20098;-73
2022/08/29 00:29:39;;;;;;;2.42;1.10;;;17.00;99.90;;;;;;4975941;28;20082;-73
2022/08/29 00:32:05;;;;;;;3.38;1.20;;;17.00;99.90;;;;;;4958861;28;20057;-73
2022/08/29 00:34:31;;;;;;;2.15;1.20;;;17.00;99.90;;;;;;4976107;28;20051;-73
2022/08/29 00:36:57;;;;;;;4.07;1.25;;;17.00;99.90;;;;;;4976132;28;20050;-73
2022/08/29 00:39:22;;;;;;;5.45;1.40;;;17.00;99.90;;;;;;4975830;28;20043;-73
2022/08/29 00:41:48;;;;;;;4.63;1.70;;;17.00;99.90;;;;;;4975961;28;20105;-73
2022/08/29 00:44:15;;;;;;;4.38;1.30;;;17.00;99.90;;;;;;4974828;28;20068;-74
2022/08/29 00:46:41;;;;;;;6.03;1.30;;;17.00;99.90;;;;;;4974736;28;20090;-74
2022/08/29 00:49:31;;;;;;;4.97;1.23;;;16.90;99.90;;;;;;4975532;28;20452;-74
2022/08/29 00:52:06;;;;;;;5.97;1.30;;;16.90;99.90;;;;;;4975353;28;20106;-74
2022/08/29 00:54:32;;;;;;;3.17;1.40;;;16.90;99.90;;;;;;4975940;28;20137;-74
2022/08/29 00:56:58;;;;;;;4.07;1.35;;;16.90;99.90;;;;;;4975526;28;20097;-74
2022/08/29 00:59:31;;;;;;;3.30;1.42;;;16.90;99.90;;;;;;4974168;28;20049;-74
2022/08/29 01:01:57;;;;;;;6.90;1.60;;;16.90;99.90;;;;;;4975631;28;20057;-74
2022/08/29 01:04:23;;;;;;;4.60;1.30;;;16.90;99.90;;;;;;4974473;28;20149;-74
2022/08/29 01:06:49;;;;;;;5.85;1.25;;;16.90;99.90;;;;;;4975393;28;20555;-74
2022/08/29 01:09:15;;;;;;;4.75;1.38;;;16.90;99.90;;;;;;4975291;28;20051;-74
2022/08/29 01:14:27;;;;;;;6.93;1.63;;;17.00;99.90;;;;;;4975475;28;20058;-74
2022/08/29 01:16:56;;;;;;;4.65;1.73;;;16.90;99.90;;;;;;4975142;28;20066;-74
2022/08/29 01:19:36;;;;;;;3.17;1.55;;;16.90;99.90;;;;;;4974085;28;20121;-75
2022/08/29 01:22:10;;;;;;;3.65;1.42;;;16.90;99.90;;;;;;4974284;28;20043;-74
2022/08/29 01:24:49;;;;;;;6.43;1.90;;;16.80;99.90;;;;;;4974998;28;20046;-74
2022/08/29 01:27:17;;;;;;;3.45;1.42;;;16.80;99.90;;;;;;4975223;28;20490;-74
2022/08/29 01:29:42;;;;;;;4.35;1.20;;;16.80;99.90;;;;;;4975078;28;20498;-75
2022/08/29 01:32:08;;;;;;;5.43;1.58;;;16.90;99.90;;;;;;4974974;28;20089;-74
2022/08/29 01:34:34;;;;;;;2.40;1.30;;;16.90;99.90;;;;;;4974843;28;20086;-74
2022/08/29 01:37:03;;;;;;;4.28;1.30;;;16.80;99.90;;;;;;4974857;28;20047;-74
2022/08/29 01:39:35;;;;;;;3.65;1.10;;;16.90;99.90;;;;;;4974832;28;20050;-74
2022/08/29 01:42:09;;;;;;;3.42;1.13;;;16.90;99.90;;;;;;4975225;28;20043;-74
2022/08/29 01:44:36;;;;;;;4.47;1.20;;;16.80;99.90;;;;;;4974710;28;20495;-75
2022/08/29 01:47:02;;;;;;;5.15;1.38;;;16.80;99.90;;;;;;4974904;28;20051;-74
2022/08/29 01:49:30;;;;;;;4.75;1.27;;;16.80;99.90;;;;;;4974569;28;20125;-74
2022/08/29 01:51:56;;;;;;;3.22;1.17;;;16.80;99.90;;;;;;4974342;28;20566;-74
2022/08/29 01:54:21;;;;;;;4.78;1.48;;;16.90;99.90;;;;;;4974265;28;20133;-75
2022/08/29 01:56:50;;;;;;;3.80;1.30;;;16.80;99.90;;;;;;4974658;28;20137;-74
2022/08/29 01:59:19;;;;;;;4.35;1.20;;;16.90;99.90;;;;;;4973454;28;20101;-74
2022/08/29 02:02:15;;;;;;;3.38;1.10;;;16.90;99.90;;;;;;4974496;28;20055;-75
2022/08/29 02:04:42;;;;;;;3.53;1.30;;;16.90;99.90;;;;;;4972178;28;20051;-74
2022/08/29 02:07:07;;;;;;;6.63;1.30;;;16.90;99.90;;;;;;4973540;28;20387;-74
2022/08/29 02:09:33;;;;;;;3.45;1.08;;;16.90;99.90;;;;;;4974725;28;20054;-74
2022/08/29 02:12:01;;;;;;;5.00;1.75;;;16.90;99.90;;;;;;4989442;28;20570;-74
2022/08/29 02:14:28;;;;;;;4.25;1.00;;;16.90;99.90;;;;;;4973291;28;20081;-74
2022/08/29 02:16:54;;;;;;;3.78;1.00;;;17.00;99.90;;;;;;4972978;28;20059;-74
2022/08/29 02:19:20;;;;;;;4.90;1.20;;;17.00;99.90;;;;;;4974378;28;20186;-74
2022/08/29 02:21:46;;;;;;;3.38;0.95;;;17.00;99.90;;;;;;4974087;28;20094;-74
2022/08/29 02:24:16;;;;;;;4.05;1.02;;;17.00;99.90;;;;;;4974220;28;20051;-74
2022/08/29 02:26:42;;;;;;;3.53;0.98;;;17.00;99.90;;;;;;4974172;28;20487;-74
2022/08/29 02:29:08;;;;;;;4.03;0.90;;;17.00;99.90;;;;;;4973377;28;20447;-74
2022/08/29 02:31:35;;;;;;;4.63;1.00;;;17.00;99.90;;;;;;4974420;28;20046;-75
2022/08/29 02:34:01;;;;;;;6.22;1.40;;;17.00;99.90;;;;;;4975860;28;20395;-74
2022/08/29 02:36:27;;;;;;;3.70;0.93;;;17.00;99.90;;;;;;4978212;28;20042;-74
2022/08/29 02:38:53;;;;;;;6.35;1.13;;;17.00;99.90;;;;;;4977011;28;20047;-73
2022/08/29 02:41:19;;;;;;;3.75;1.20;;;17.00;99.90;;;;;;4978050;28;20047;-73
2022/08/29 02:43:44;;;;;;;2.08;0.90;;;17.00;99.90;;;;;;4976657;28;20112;-73
2022/08/29 02:46:16;;;;;;;6.13;1.20;;;17.00;99.90;;;;;;4977256;28;20054;-73
2022/08/29 02:48:42;;;;;;;4.35;0.90;;;17.00;99.90;;;;;;4978006;28;20042;-73
2022/08/29 02:51:08;;;;;;;3.25;1.30;;;16.90;99.90;;;;;;4977981;28;20171;-73
2022/08/29 02:53:34;;;;;;;4.10;1.10;;;16.90;99.90;;;;;;4977704;28;20051;-74
2022/08/29 02:56:01;;;;;;;3.75;1.27;;;16.90;99.90;;;;;;4960595;28;20046;-73
2022/08/29 02:58:27;;;;;;;3.83;1.30;;;16.90;99.90;;;;;;4976336;28;20050;-74
2022/08/29 03:00:53;;;;;;;4.30;1.30;;;16.90;99.90;;;;;;4976855;28;20054;-74
2022/08/29 03:03:19;;;;;;;3.58;0.98;;;16.90;99.90;;;;;;4977680;28;20046;-73
2022/08/29 03:05:45;;;;;;;3.70;1.90;;;16.90;99.90;;;;;;4976741;28;20101;-73
2022/08/29 03:08:14;;;;;;;4.72;1.00;;;16.90;99.90;;;;;;4992594;28;20051;-73
2022/08/29 03:10:41;;;;;;;6.35;1.40;;;16.80;99.90;;;;;;4977416;28;20049;-73
2022/08/29 03:13:07;;;;;;;4.07;0.90;;;16.80;99.90;;;;;;4976645;28;20471;-73
2022/08/29 03:15:33;;;;;;;5.15;1.50;;;16.80;99.90;;;;;;4977762;28;20085;-73
2022/08/29 03:18:00;;;;;;;4.57;1.00;;;16.80;99.90;;;;;;4977660;28;20090;-73
2022/08/29 03:20:25;;;;;;;3.88;1.60;;;16.80;99.90;;;;;;4976226;28;20082;-74
2022/08/29 03:22:53;;;;;;;4.38;1.40;;;16.80;99.90;;;;;;4976879;28;20459;-73
2022/08/29 03:25:20;;;;;;;3.95;1.13;;;16.80;99.90;;;;;;4977306;28;20046;-73
2022/08/29 03:27:46;;;;;;;2.35;1.20;;;16.70;99.90;;;;;;4977301;28;20073;-73
2022/08/29 03:30:14;;;;;;;3.30;1.10;;;16.80;99.90;;;;;;4976466;28;20112;-74
2022/08/29 03:32:39;;;;;;;6.35;1.40;;;16.80;99.90;;;;;;4977160;28;20047;-73
2022/08/29 03:35:07;;;;;;;2.55;1.17;;;16.80;99.90;;;;;;4960152;28;20046;-73
2022/08/29 03:37:33;;;;;;;4.78;1.73;;;16.80;99.90;;;;;;4977069;28;20082;-73
2022/08/29 03:40:00;;;;;;;6.40;1.60;;;16.80;99.90;;;;;;4976876;28;20131;-74
2022/08/29 03:42:26;;;;;;;4.50;1.20;;;16.70;99.90;;;;;;4977292;28;20421;-74
2022/08/29 03:44:52;;;;;;;5.15;1.40;;;16.70;99.90;;;;;;4960004;28;20050;-73
2022/08/29 03:47:17;;;;;;;3.92;1.10;;;16.70;99.90;;;;;;4976107;28;20061;-73
2022/08/29 03:49:44;;;;;;;6.80;1.63;;;16.70;99.90;;;;;;4976843;28;20043;-73
2022/08/29 03:52:09;;;;;;;4.20;1.20;;;16.70;99.90;;;;;;4975537;28;20059;-74
2022/08/29 03:54:36;;;;;;;6.85;1.10;;;16.70;99.90;;;;;;4976615;28;20051;-74
2022/08/29 03:57:06;;;;;;;4.05;1.55;;;16.60;99.90;;;;;;4976907;28;20477;-74
2022/08/29 03:59:33;;;;;;;3.88;1.30;;;16.60;99.90;;;;;;4976648;28;20106;-74
2022/08/29 04:01:59;;;;;;;5.28;1.23;;;16.60;99.90;;;;;;4975428;28;20054;-74
2022/08/29 04:07:12;;;;;;;4.65;1.23;;;16.60;99.90;;;;;;4976367;28;20090;-74
2022/08/29 04:09:39;;;;;;;4.07;1.35;;;16.60;99.90;;;;;;4976566;28;20058;-74
2022/08/29 04:12:07;;;;;;;4.88;1.70;;;16.60;99.90;;;;;;4976532;28;20133;-73
2022/08/29 04:14:33;;;;;;;6.05;1.48;;;16.60;99.90;;;;;;4976410;28;20130;-74
2022/08/29 04:17:00;;;;;;;4.15;1.30;;;16.60;99.90;;;;;;4976386;28;20058;-74
2022/08/29 04:19:26;;;;;;;4.03;1.30;;;16.60;99.90;;;;;;4976153;28;20400;-74
2022/08/29 04:21:52;;;;;;;3.20;1.48;;;16.60;99.90;;;;;;4975935;28;20049;-74
2022/08/29 04:24:19;;;;;;;6.00;1.33;;;16.60;99.90;;;;;;4959655;28;20130;-73
2022/08/29 04:26:45;;;;;;;7.20;1.30;;;16.60;99.90;;;;;;4976475;28;20100;-74
2022/08/29 04:29:12;;;;;;;5.75;1.42;;;16.60;99.90;;;;;;4976298;28;20043;-74
2022/08/29 04:31:40;;;;;;;5.78;1.48;;;16.70;99.90;;;;;;4974908;28;20055;-73
2022/08/29 04:34:08;;;;;;;5.63;1.48;;;16.60;99.90;;;;;;4974894;28;20050;-74
2022/08/29 04:36:35;;;;;;;4.65;1.40;;;16.70;99.90;;;;;;4976141;28;20054;-74
2022/08/29 04:39:03;;;;;;;6.30;1.63;;;16.60;99.90;;;;;;4975901;28;20046;-74
2022/08/29 04:41:29;;;;;;;4.88;1.33;;;16.60;99.90;;;;;;4975086;28;20059;-74
2022/08/29 04:43:54;;;;;;;8.18;2.25;;;16.60;99.90;;;;;;4975871;28;20077;-74
2022/08/29 04:46:20;;;;;;;5.53;1.30;;;16.60;99.90;;;;;;4975785;28;20105;-74
2022/08/29 04:48:46;;;;;;;5.43;1.40;;;16.60;99.90;;;;;;4958576;28;20057;-74
2022/08/29 04:51:12;;;;;;;3.83;1.23;;;16.60;99.90;;;;;;4974609;28;20059;-74
2022/08/29 04:53:38;;;;;;;5.00;1.40;;;16.60;99.90;;;;;;4975488;28;20047;-74
2022/08/29 04:56:07;;;;;;;4.10;1.20;;;16.60;99.90;;;;;;4975806;28;20142;-74
2022/08/29 04:58:33;;;;;;;4.57;1.30;;;16.60;99.90;;;;;;4974594;28;20046;-74
2022/08/29 05:00:59;;;;;;;2.85;1.42;;;16.60;99.90;;;;;;4974405;28;20046;-74
2022/08/29 05:03:25;;;;;;;5.10;1.23;;;16.60;99.90;;;;;;4975456;28;20049;-73
2022/08/29 05:06:21;;;;;;;5.15;1.67;;;16.60;99.90;;;;;;4975615;28;20047;-74
2022/08/29 05:08:46;;;;;;;4.68;1.58;;;16.50;99.90;;;;;;4970785;28;20047;-74
2022/08/29 05:11:16;;;;;;;5.40;1.42;;;16.50;99.90;;;;;;4975330;28;20051;-74
2022/08/29 05:13:42;;;;;;;3.20;1.27;;;16.60;99.90;;;;;;4975230;28;20415;-74
2022/08/29 05:16:10;;;;;;;3.03;1.33;;;16.50;99.90;;;;;;4974872;28;20066;-74
2022/08/29 05:18:37;;;;;;;5.78;1.42;;;16.60;99.90;;;;;;4975244;28;20403;-74
2022/08/29 05:21:03;;;;;;;3.35;1.30;;;16.60;99.90;;;;;;4975250;28;20054;-73
2022/08/29 05:23:29;;;;;;;5.07;1.40;;;16.60;99.90;;;;;;4974560;28;20061;-74
2022/08/29 05:26:00;;;;;;;7.63;1.52;;;16.60;99.90;;;;;;4974998;28;20054;-74
2022/08/29 05:28:27;;;;;;;5.00;1.52;;;16.70;99.90;;;;;;4974936;28;20058;-74
2022/08/29 05:30:53;;;;;;;3.33;1.35;;;16.70;99.90;;;;;;4975148;28;20078;-75
2022/08/29 05:33:20;;;;;;;7.13;1.77;;;16.70;99.90;;;;;;4975100;28;20085;-74
2022/08/29 05:35:46;;;;;;;5.38;1.50;;;16.70;99.90;;;;;;4975033;28;20047;-74
2022/08/29 05:38:13;;;;;;;4.38;1.40;;;16.70;99.90;;;;;;4973804;28;20050;-74
2022/08/29 05:40:39;;;;;;;7.05;1.70;;;16.70;99.90;;;;;;4974904;28;20410;-75
2022/08/29 05:43:09;;;;;;;7.07;1.48;;;16.70;99.90;;;;;;4974609;28;20097;-74
2022/08/29 05:45:36;;;;;;;3.78;1.30;;;16.70;99.90;;;;;;4974003;28;20051;-74
2022/08/29 05:48:04;;;;;;;4.30;1.52;;;16.80;99.90;;;;;;4989773;28;20050;-74
2022/08/29 05:50:30;;;;;;;5.82;1.65;;;16.70;99.90;;;;;;4974748;28;20530;-74
2022/08/29 05:52:55;;;;;;;4.93;2.17;;;16.80;99.90;;;;;;4974302;28;20133;-74
2022/08/29 05:55:21;;;;;;;5.88;1.60;;;16.80;99.90;;;;;;4974673;28;20042;-74
2022/08/29 05:57:50;;;;;;;5.35;1.85;;;16.80;99.90;;;;;;4974454;28;20043;-74
2022/08/29 06:00:16;;;;;;;5.25;2.10;;;16.90;99.90;;;;;;4974673;28;20053;-74
2022/08/29 06:02:42;;;;;;;4.38;1.98;;;16.90;99.90;;;;;;4974647;28;20043;-74
2022/08/29 06:05:09;;;;;;;6.40;2.20;;;16.90;99.90;;;;;;4973784;28;20098;-74
2022/08/29 06:07:35;;;;;;;3.80;1.70;;;17.00;99.90;;;;;;4973591;28;20090;-74
2022/08/29 06:10:05;;;;;;;8.57;2.20;;;16.90;99.90;;;;;;4974160;28;20086;-74
2022/08/29 06:12:32;;;;;;;5.85;2.28;;;17.00;99.90;;;;;;4974739;28;20133;-74
2022/08/29 06:14:57;;;;;;;5.95;1.77;;;17.00;99.90;;;;;;4974528;28;20047;-74
2022/08/29 06:17:23;;;;;;;6.00;1.92;;;17.10;99.90;;;;;;4973062;28;20055;-74
2022/08/29 06:19:51;;;;;;;7.93;1.98;;;17.10;99.90;;;;;;4974325;28;20054;-74
2022/08/29 06:22:21;;;;;;;5.63;1.70;;;17.20;99.90;;;;;;4974085;28;20380;-74
2022/08/29 06:24:47;;;;;;;6.35;1.85;;;17.20;99.90;;;;;;4973301;28;20054;-75
2022/08/29 06:27:13;;;;;;;5.45;1.90;;;17.20;99.90;;;;;;4974602;28;20054;-75
2022/08/29 06:29:39;;;;;;;5.85;1.60;;;17.20;99.90;;;;;;4974474;28;20399;-74
2022/08/29 06:32:05;;;;;;;6.85;2.22;;;17.30;99.90;;;;;;4956833;28;20055;-74
2022/08/29 06:34:30;;;;;;;6.13;2.10;;;17.30;99.90;;;;;;4957215;28;20057;-75
2022/08/29 06:36:58;;;;;;;5.50;1.80;;;17.30;99.90;;;;;;4974207;28;20065;-74
2022/08/29 06:39:23;;;;;;;5.65;1.95;;;17.30;99.90;;;;;;4972794;28;20058;-75
2022/08/29 06:41:49;;;;;;;8.48;2.10;;;17.30;99.90;;;;;;4974462;28;20043;-75
2022/08/29 06:44:15;;;;;;;6.60;2.10;;;17.40;99.90;;;;;;4957219;28;20065;-74
2022/08/29 06:46:45;;;;;;;7.95;1.90;;;17.40;99.90;;;;;;4973277;28;20434;-74
2022/08/29 06:49:13;;;;;;;8.45;2.80;;;17.40;99.90;;;;;;4972974;28;20096;-75
2022/08/29 06:51:42;;;;;;;6.97;2.25;;;17.50;99.90;;;;;;4974040;28;20047;-75
2022/08/29 06:54:09;;;;;;;7.15;2.28;;;17.50;99.90;;;;;;4972530;28;20054;-75
2022/08/29 06:56:35;;;;;;;7.90;2.25;;;17.60;99.90;;;;;;4989001;28;20101;-75
2022/08/29 06:59:02;;;;;;;7.10;1.88;;;17.60;99.90;;;;;;4973969;28;20131;-75
2022/08/29 07:01:27;;;;;;;7.53;2.55;;;17.70;99.90;;;;;;4972992;28;20050;-74
2022/08/29 07:03:56;;;;;;;4.95;2.10;;;17.80;99.90;;;;;;4972757;28;20047;-75
2022/08/29 07:06:22;;;;;;;9.23;2.10;;;17.80;99.90;;;;;;4972918;28;20062;-75
2022/08/29 07:08:49;;;;;;;5.90;2.10;;;17.90;99.90;;;;;;4974200;28;20496;-75
2022/08/29 07:11:15;;;;;;;10.50;2.28;;;17.90;99.90;;;;;;4974094;28;20051;-75
2022/08/29 07:13:41;;;;;;;6.15;1.70;;;17.90;99.90;;;;;;4989042;28;20047;-74
2022/08/29 07:16:15;;;;;;;8.10;2.00;;;18.00;99.90;;;;;;4973734;28;20538;-75
2022/08/29 07:18:41;;;;;;;7.68;2.10;;;18.00;99.90;;;;;;4973878;28;20047;-74
2022/08/29 07:21:09;;;;;;;5.70;1.95;;;18.10;99.90;;;;;;4975287;28;20123;-75
2022/08/29 07:23:35;;;;;;;11.07;2.08;;;18.10;99.90;;;;;;4977305;28;20126;-75
2022/08/29 07:26:17;;;;;;;7.88;1.67;;;18.10;99.90;;;;;;4976774;28;20050;-76
2022/08/29 07:28:45;;;;;;;10.57;2.60;;;18.10;99.90;;;;;;4977340;28;20089;-75
2022/08/29 07:31:11;;;;;;;8.43;1.88;;;18.20;99.90;;;;;;4977293;28;20047;-75
2022/08/29 07:33:37;;;;;;;10.65;1.95;;;18.20;99.90;;;;;;4992121;28;20047;-75
2022/08/29 07:36:03;;;;;;;10.02;2.30;;;18.20;99.90;;;;;;4960485;28;20050;-75
2022/08/29 07:38:29;;;;;;;8.32;2.17;;;18.30;99.90;;;;;;4977241;28;20054;-75
2022/08/29 07:41:00;;;;;;;11.82;2.55;;;18.30;99.90;;;;;;4977161;28;20074;-74
2022/08/29 07:43:26;;;;;;;5.95;2.33;;;18.30;99.90;;;;;;4976140;28;20058;-74
2022/08/29 07:45:52;;;;;;;5.95;1.85;;;18.30;99.90;;;;;;4977271;28;20050;-73
2022/08/29 07:48:17;;;;;;;7.22;2.40;;;18.30;99.90;;;;;;4991871;28;20042;-74
2022/08/29 07:50:43;;;;;;;10.07;2.33;;;18.40;99.90;;;;;;4976145;28;20046;-73
2022/08/29 07:53:09;;;;;;;6.75;2.42;;;18.40;99.90;;;;;;4976491;28;20142;-74
2022/08/29 07:55:36;;;;;;;8.57;2.85;;;18.40;99.90;;;;;;4976951;28;20051;-73
2022/08/29 07:58:03;;;;;;;5.72;2.03;;;18.50;99.90;;;;;;4975933;28;20057;-73
2022/08/29 08:00:29;;;;;;;9.00;2.47;;;18.60;99.90;;;;;;4976704;28;20132;-74
2022/08/29 08:02:55;;;;;;;7.15;2.30;;;18.50;99.90;;;;;;4975599;28;20530;-74
2022/08/29 08:05:21;;;;;;;8.10;2.33;;;18.60;99.90;;;;;;4976881;28;20082;-74
2022/08/29 08:07:48;;;;;;;9.20;2.28;;;18.80;99.90;;;;;;4991779;28;20085;-72
2022/08/29 08:10:19;;;;;;;5.53;2.10;;;18.90;99.90;;;;;;4968146;28;20061;-73
2022/08/29 08:12:46;;;;;;;9.23;2.40;;;18.70;99.90;;;;;;4953592;28;20074;-74
2022/08/29 08:15:13;;;;;;;9.05;3.22;;;18.90;99.90;;;;;;4971700;28;20042;-73
2022/08/29 08:17:40;;;;;;;9.43;2.58;;;18.80;99.90;;;;;;4968250;28;20063;-72
2022/08/29 08:20:07;;;;;;;6.88;2.72;;;18.80;99.90;;;;;;4972801;28;20085;-73
2022/08/29 08:22:33;;;;;;;8.50;2.20;;;19.10;99.90;;;;;;4970025;28;20085;-73
2022/08/29 08:24:59;;;;;;;6.57;2.38;;;19.10;99.90;;;;;;4966286;28;20116;-74
2022/08/29 08:27:24;;;;;;;9.23;2.63;;;18.90;99.90;;;;;;4966156;28;20930;-74
2022/08/29 08:29:50;;;;;;;8.80;2.58;;;19.00;99.90;;;;;;4965363;28;20392;-73
2022/08/29 08:32:16;;;;;;;7.40;2.20;;;19.00;99.90;;;;;;4966205;28;20054;-74
2022/08/29 08:34:41;;;;;;;6.53;2.80;;;19.10;99.90;;;;;;4966502;28;20043;-73
2022/08/29 08:37:08;;;;;;;8.07;2.63;;;19.20;99.90;;;;;;4965129;28;20042;-73
2022/08/29 08:39:35;;;;;;;8.98;2.60;;;19.20;99.90;;;;;;4966608;28;20043;-73
2022/08/29 08:42:07;;;;;;;8.13;2.78;;;19.20;99.90;;;;;;4966542;28;20051;-73
2022/08/29 08:44:38;;;;;;;6.13;2.25;;;19.20;99.90;;;;;;4965355;28;20070;-74
2022/08/29 08:47:08;;;;;;;10.00;2.58;;;19.20;99.90;;;;;;4961427;28;20047;-73
2022/08/29 08:49:55;;;;;;;7.28;2.67;;;19.20;99.90;;;;;;4948008;28;20177;-73
2022/08/29 08:52:34;;;;;;;8.88;2.92;;;19.20;99.90;;;;;;4963548;28;20284;-73
2022/08/29 08:55:04;;;;;;;11.13;3.28;;;19.20;99.90;;;;;;4967504;28;21608;-73
2022/08/29 08:57:38;;;;;;;12.38;2.47;;;19.20;99.90;;;;;;4967838;28;20101;-73
2022/08/29 09:00:06;;;;;;;9.57;2.85;;;19.20;99.90;;;;;;4964489;28;20500;-73
2022/08/29 09:03:07;;;;;;;9.98;2.45;;;19.30;99.90;;;;;;4968285;28;20103;-73
2022/08/29 09:05:39;;;;;;;8.50;2.08;;;19.30;99.90;;;;;;4964427;28;20061;-73
2022/08/29 09:08:25;;;;;;;9.65;2.40;;;19.30;99.90;;;;;;4969475;28;20101;-72
2022/08/29 09:11:11;;;;;;;10.10;2.08;;;19.30;99.90;;;;;;4968456;28;20054;-72
2022/08/29 09:13:42;;;;;;;9.20;2.53;;;19.30;99.90;;;;;;4969271;28;20047;-73
2022/08/29 09:16:24;;;;;;;5.93;2.38;;;19.30;99.90;;;;;;4970531;28;20059;-73
2022/08/29 09:18:49;;;;;;;9.07;2.03;;;19.40;99.90;;;;;;4950112;28;20051;-74
2022/08/29 09:21:19;;;;;;;6.35;1.90;;;19.30;99.90;;;;;;4966731;28;20133;-73
2022/08/29 09:23:46;;;;;;;9.02;2.30;;;19.30;99.90;;;;;;4965241;28;20511;-72
2022/08/29 09:26:15;;;;;;;7.78;2.05;;;19.40;99.90;;;;;;4966652;28;20101;-73
2022/08/29 09:28:41;;;;;;;9.23;2.28;;;19.40;99.90;;;;;;4969388;28;20054;-73
2022/08/29 09:31:15;;;;;;;7.13;1.95;;;19.40;99.90;;;;;;4969964;28;20419;-73
2022/08/29 09:33:47;;;;;;;6.40;2.13;;;19.40;99.90;;;;;;4966978;28;20042;-74
2022/08/29 09:36:31;;;;;;;7.85;2.65;;;19.50;99.90;;;;;;4960217;28;20509;-73
2022/08/29 09:39:12;;;;;;;10.32;2.28;;;19.50;99.90;;;;;;4964647;28;20447;-74
2022/08/29 09:41:38;;;;;;;7.28;2.08;;;19.50;99.90;;;;;;4964622;28;20062;-73
2022/08/29 09:44:05;;;;;;;10.52;2.25;;;19.60;99.90;;;;;;4964927;28;20122;-74
2022/08/29 09:46:31;;;;;;;6.75;2.00;;;19.60;99.90;;;;;;4965807;28;20058;-72
2022/08/29 09:48:56;;;;;;;5.88;2.20;;;19.70;99.90;;;;;;4963250;28;20043;-73
2022/08/29 09:51:35;;;;;;;6.40;2.10;;;19.90;99.90;;;;;;4954365;29;20385;-72
2022/08/29 09:54:15;;;;;;;12.43;2.15;;;19.90;99.90;;;;;;4955404;28;20086;-72
2022/08/29 09:56:49;;;;;;;28.45;4.45;;;19.80;99.90;;;;;;4954600;28;20072;-73
2022/08/29 09:59:32;;;;;;;4.90;1.77;;;19.80;99.90;;;;;;4954434;29;20051;-74
2022/08/29 10:02:19;;;;;;;6.65;2.00;;;19.80;99.90;;;;;;4955568;28;20511;-73
2022/08/29 10:04:48;;;;;;;7.88;2.10;;;19.80;99.90;;;;;;4955555;28;20039;-73
2022/08/29 10:07:28;;;;;;;5.22;1.67;;;20.00;99.90;;;;;;4955409;28;20090;-74
2022/08/29 10:10:05;;;;;;;8.15;1.80;;;20.00;99.90;;;;;;4954045;29;20043;-73
2022/08/29 10:12:59;;;;;;;6.03;1.92;;;20.00;99.90;;;;;;4955981;28;20050;-73
2022/08/29 10:15:40;;;;;;;7.80;1.90;;;20.10;99.90;;;;;;4964892;28;20045;-74
2022/08/29 10:18:26;;;;;;;4.80;1.65;;;20.00;99.90;;;;;;4993480;28;20050;-74
2022/08/29 10:21:23;;;;;;;4.15;1.70;;;20.00;99.90;;;;;;4993343;28;20053;-74
2022/08/29 10:24:27;;;;;;;7.35;2.15;;;20.10;99.90;;;;;;4993093;28;20047;-74
2022/08/29 10:27:08;;;;;;;8.50;2.00;;;20.20;99.90;;;;;;4988096;28;20051;-73
2022/08/29 10:29:41;;;;;;;8.80;2.00;;;20.20;99.90;;;;;;4953700;28;20055;-74
2022/08/29 10:32:09;;;;;;;7.70;1.85;;;20.10;99.90;;;;;;4953843;29;20059;-74
2022/08/29 10:35:14;;;;;;;8.13;1.77;;;20.20;99.90;;;;;;4954072;28;20507;-74
2022/08/29 10:37:46;;;;;;;14.98;3.45;;;20.30;99.90;;;;;;4937679;29;20069;-74
2022/08/29 10:40:27;;;;;;;7.47;2.17;;;20.20;99.90;;;;;;4954211;28;20134;-72
2022/08/29 10:43:11;;;;;;;6.30;1.95;;;20.30;99.90;;;;;;4953156;28;20654;-72
2022/08/29 10:46:00;;;;;;;7.05;1.80;;;20.10;99.90;;;;;;4954039;28;20043;-72
2022/08/29 10:48:56;;;;;;;6.07;2.17;;;20.10;99.90;;;;;;4937406;29;20062;-72
2022/08/29 10:51:38;;;;;;;5.45;1.75;;;19.90;99.90;;;;;;4938679;28;20059;-72
2022/08/29 10:54:31;;;;;;;7.25;3.10;;;19.90;99.90;;;;;;4953863;28;20428;-72
2022/08/29 10:56:58;;;;;;;8.38;2.97;;;19.90;99.90;;;;;;4958069;28;20043;-72
2022/08/29 10:59:33;;;;;;;6.90;2.17;;;19.70;99.90;;;;;;4957924;28;20479;-72
2022/08/29 11:02:04;;;;;;;4.28;1.95;;;19.70;99.90;;;;;;4964141;28;20053;-73
2022/08/29 11:04:51;;;;;;;4.85;1.90;;;19.60;99.90;;;;;;4965991;28;20058;-72
2022/08/29 11:07:21;;;;;;;8.07;1.27;;;19.80;99.90;;;;;;4970812;28;20058;-73
2022/08/29 11:10:01;;;;;;;4.45;1.42;;;19.60;99.90;;;;;;4967491;28;20043;-73
2022/08/29 11:12:46;;;;;;;7.22;1.70;;;19.60;99.90;;;;;;4970386;28;20051;-73
2022/08/29 11:15:34;;;;;;;3.30;1.33;;;19.70;99.90;;;;;;4965066;28;20051;-73
2022/08/29 11:18:26;;;;;;;2.65;1.48;;;19.50;99.90;;;;;;4963818;28;20055;-72
2022/08/29 11:20:59;;;;;;;4.45;1.50;;;19.50;99.90;;;;;;4968532;28;20055;-72
2022/08/29 11:23:38;;;;;;;6.38;1.48;;;19.70;99.90;;;;;;4966622;28;20073;-73
2022/08/29 11:26:47;;;;;;;4.32;1.63;;;19.60;99.90;;;;;;4967473;28;20042;-73
2022/08/29 11:29:33;;;;;;;6.55;1.92;;;19.70;99.90;;;;;;4931423;29;20046;-72
2022/08/29 11:32:31;;;;;;;4.72;1.40;;;19.80;99.90;;;;;;4966488;28;20077;-72
2022/08/29 11:35:24;;;;;;;2.88;1.08;;;19.70;99.90;;;;;;4971594;28;20058;-72
2022/08/29 11:38:05;;;;;;;3.38;1.20;;;19.70;99.90;;;;;;4967390;28;20042;-73
2022/08/29 11:40:46;;;;;;;5.00;1.20;;;19.80;99.90;;;;;;4967998;28;20170;-73
2022/08/29 11:43:18;;;;;;;5.60;1.30;;;19.80;99.90;;;;;;4969168;28;20038;-73
2022/08/29 11:45:58;;;;;;;3.97;1.13;;;20.00;99.90;;;;;;4948713;28;20054;-73
2022/08/29 11:48:35;;;;;;;2.00;1.25;;;19.90;99.90;;;;;;4969638;28;20047;-72
2022/08/29 11:51:37;;;;;;;3.88;1.23;;;19.90;99.90;;;;;;4971733;28;20043;-72
2022/08/29 11:54:22;;;;;;;3.50;1.27;;;19.90;99.90;;;;;;4970611;28;20043;-72
2022/08/29 11:56:48;;;;;;;4.53;1.30;;;19.90;99.90;;;;;;4966053;28;20368;-72
2022/08/29 11:59:59;;;;;;;4.10;1.60;;;20.10;99.90;;;;;;4966412;28;20130;-72
2022/08/29 12:02:31;;;;;;;4.15;1.35;;;19.80;99.90;;;;;;4963979;28;20463;-72
2022/08/29 12:05:15;;;;;;;4.85;1.20;;;19.90;99.90;;;;;;4968830;28;20042;-72
2022/08/29 12:07:52;;;;;;;3.67;1.55;;;19.80;99.90;;;;;;4970184;28;20051;-72
2022/08/29 12:10:24;;;;;;;3.72;1.30;;;19.90;99.90;;;;;;4969916;28;20511;-72
2022/08/29 12:12:55;;;;;;;5.97;1.55;;;20.10;99.90;;;;;;4964873;28;20055;-72
2022/08/29 12:15:26;;;;;;;3.25;1.10;;;20.00;99.90;;;;;;4971144;28;20665;-72
2022/08/29 12:18:14;;;;;;;4.43;1.40;;;19.90;99.90;;;;;;4969010;28;20050;-72
2022/08/29 12:20:45;;;;;;;2.42;1.00;;;19.90;99.90;;;;;;4968011;28;20047;-72
2022/08/29 12:23:13;;;;;;;3.10;1.75;;;20.10;99.90;;;;;;4966815;28;20089;-72
2022/08/29 12:25:42;;;;;;;3.95;1.10;;;20.00;99.90;;;;;;4968419;28;20480;-72
2022/08/29 12:28:19;;;;;;;5.22;1.63;;;20.00;99.90;;;;;;4969879;28;20046;-72
2022/08/29 12:30:57;;;;;;;4.03;1.20;;;20.00;99.90;;;;;;4970956;28;20054;-72
2022/08/29 12:33:41;;;;;;;2.85;1.20;;;20.00;99.90;;;;;;4963861;28;20130;-72
2022/08/29 12:36:19;;;;;;;3.22;1.00;;;20.10;99.90;;;;;;4965594;28;20051;-72
2022/08/29 12:38:55;;;;;;;5.88;1.20;;;20.20;99.90;;;;;;4964144;28;20047;-71
2022/08/29 12:41:48;;;;;;;3.22;1.40;;;20.40;99.90;;;;;;4966335;28;20085;-72
2022/08/29 12:44:17;;;;;;;5.72;1.52;;;20.50;99.90;;;;;;4965307;28;20114;-72
2022/08/29 12:46:49;;;;;;;6.22;1.33;;;20.40;99.90;;;;;;4966873;28;20043;-71
2022/08/29 12:49:17;;;;;;;6.95;1.58;;;20.30;99.90;;;;;;4966669;28;20046;-72
2022/08/29 12:51:48;;;;;;;4.50;0.95;;;20.40;99.90;;;;;;4963499;28;20047;-72
2022/08/29 12:54:14;;;;;;;3.83;1.20;;;20.40;99.90;;;;;;4964743;28;20047;-73
2022/08/29 12:56:48;;;;;;;4.75;1.20;;;20.50;99.90;;;;;;4966641;28;20050;-72
2022/08/29 12:59:19;;;;;;;4.53;1.23;;;20.50;99.90;;;;;;4965376;28;20488;-72
2022/08/29 13:01:53;;;;;;;4.38;1.10;;;20.50;99.90;;;;;;4963797;28;20054;-72
2022/08/29 13:04:23;;;;;;;3.72;1.05;;;20.60;99.90;;;;;;4967199;28;20097;-71
2022/08/29 13:07:05;;;;;;;3.47;0.90;;;20.60;99.90;;;;;;4965417;28;20035;-71
2022/08/29 13:09:32;;;;;;;4.07;1.20;;;20.90;99.90;;;;;;4965196;28;20528;-72